sensor_id;sensor_type;location;lat;lon;timestamp;P1;durP1;ratioP1;P2;durP2;ratioP2
14688;SDS011;7432;48.728;9.154;2022-11-11T00:01:48;9.10;;;7.37;;
14688;SDS011;7432;48.728;9.154;2022-11-11T00:04:14;7.80;;;7.00;;
14688;SDS011;7432;48.728;9.154;2022-11-11T00:06:40;7.73;;;6.63;;
14688;SDS011;7432;48.728;9.154;2022-11-11T00:09:07;10.70;;;7.60;;
14688;SDS011;7432;48.728;9.154;2022-11-11T00:11:35;9.57;;;7.33;;
14688;SDS011;7432;48.728;9.154;2022-11-11T00:14:02;15.30;;;8.70;;
14688;SDS011;7432;48.728;9.154;2022-11-11T00:16:30;8.87;;;7.63;;
14688;SDS011;7432;48.728;9.154;2022-11-11T00:19:16;14.30;;;8.27;;
14688;SDS011;7432;48.728;9.154;2022-11-11T00:22:00;11.10;;;9.13;;
14688;SDS011;7432;48.728;9.154;2022-11-11T00:24:44;11.40;;;8.43;;
14688;SDS011;7432;48.728;9.154;2022-11-11T00:27:28;12.53;;;8.63;;
14688;SDS011;7432;48.728;9.154;2022-11-11T00:29:54;10.50;;;7.80;;
14688;SDS011;7432;48.728;9.154;2022-11-11T00:32:22;11.53;;;8.30;;
14688;SDS011;7432;48.728;9.154;2022-11-11T00:34:51;11.80;;;9.07;;
14688;SDS011;7432;48.728;9.154;2022-11-11T00:37:36;12.23;;;8.93;;
14688;SDS011;7432;48.728;9.154;2022-11-11T00:40:04;12.97;;;9.03;;
14688;SDS011;7432;48.728;9.154;2022-11-11T00:42:32;12.50;;;9.43;;
14688;SDS011;7432;48.728;9.154;2022-11-11T00:44:58;11.80;;;8.17;;
14688;SDS011;7432;48.728;9.154;2022-11-11T00:47:26;10.23;;;6.90;;
14688;SDS011;7432;48.728;9.154;2022-11-11T00:50:11;12.37;;;7.60;;
14688;SDS011;7432;48.728;9.154;2022-11-11T00:52:55;7.10;;;6.43;;
14688;SDS011;7432;48.728;9.154;2022-11-11T00:55:21;10.40;;;6.57;;
14688;SDS011;7432;48.728;9.154;2022-11-11T00:57:48;9.03;;;6.90;;
14688;SDS011;7432;48.728;9.154;2022-11-11T01:00:14;8.87;;;7.37;;
14688;SDS011;7432;48.728;9.154;2022-11-11T01:02:42;11.90;;;8.03;;
14688;SDS011;7432;48.728;9.154;2022-11-11T01:05:08;9.63;;;7.13;;
14688;SDS011;7432;48.728;9.154;2022-11-11T01:07:35;9.20;;;7.03;;
14688;SDS011;7432;48.728;9.154;2022-11-11T01:10:01;9.30;;;7.20;;
14688;SDS011;7432;48.728;9.154;2022-11-11T01:12:28;8.07;;;7.27;;
14688;SDS011;7432;48.728;9.154;2022-11-11T01:14:55;8.63;;;7.33;;
14688;SDS011;7432;48.728;9.154;2022-11-11T01:17:21;8.97;;;7.20;;
14688;SDS011;7432;48.728;9.154;2022-11-11T01:19:49;8.87;;;6.83;;
14688;SDS011;7432;48.728;9.154;2022-11-11T01:22:15;12.13;;;7.37;;
14688;SDS011;7432;48.728;9.154;2022-11-11T01:24:41;7.70;;;6.90;;
14688;SDS011;7432;48.728;9.154;2022-11-11T01:27:10;10.63;;;7.70;;
14688;SDS011;7432;48.728;9.154;2022-11-11T01:29:36;12.60;;;6.60;;
14688;SDS011;7432;48.728;9.154;2022-11-11T01:32:03;9.90;;;7.23;;
14688;SDS011;7432;48.728;9.154;2022-11-11T01:34:29;8.83;;;6.90;;
14688;SDS011;7432;48.728;9.154;2022-11-11T01:36:57;10.27;;;6.90;;
14688;SDS011;7432;48.728;9.154;2022-11-11T01:39:23;10.17;;;6.83;;
14688;SDS011;7432;48.728;9.154;2022-11-11T01:41:50;9.13;;;6.67;;
14688;SDS011;7432;48.728;9.154;2022-11-11T01:44:18;8.53;;;6.23;;
14688;SDS011;7432;48.728;9.154;2022-11-11T01:46:46;9.07;;;7.37;;
14688;SDS011;7432;48.728;9.154;2022-11-11T01:49:19;7.30;;;6.67;;
14688;SDS011;7432;48.728;9.154;2022-11-11T01:51:51;8.77;;;7.00;;
14688;SDS011;7432;48.728;9.154;2022-11-11T01:54:23;10.13;;;6.80;;
14688;SDS011;7432;48.728;9.154;2022-11-11T01:56:55;11.73;;;8.00;;
14688;SDS011;7432;48.728;9.154;2022-11-11T01:59:24;9.30;;;7.57;;
14688;SDS011;7432;48.728;9.154;2022-11-11T02:01:51;9.37;;;6.87;;
14688;SDS011;7432;48.728;9.154;2022-11-11T02:04:18;8.40;;;7.33;;
14688;SDS011;7432;48.728;9.154;2022-11-11T02:07:03;8.37;;;6.83;;
14688;SDS011;7432;48.728;9.154;2022-11-11T02:09:35;7.70;;;6.83;;
14688;SDS011;7432;48.728;9.154;2022-11-11T02:12:07;8.60;;;6.60;;
14688;SDS011;7432;48.728;9.154;2022-11-11T02:14:53;8.53;;;6.70;;
14688;SDS011;7432;48.728;9.154;2022-11-11T02:17:22;8.60;;;6.27;;
14688;SDS011;7432;48.728;9.154;2022-11-11T02:19:53;7.60;;;6.90;;
14688;SDS011;7432;48.728;9.154;2022-11-11T02:22:22;7.63;;;6.93;;
14688;SDS011;7432;48.728;9.154;2022-11-11T02:24:55;7.97;;;7.10;;
14688;SDS011;7432;48.728;9.154;2022-11-11T02:27:22;8.17;;;6.57;;
14688;SDS011;7432;48.728;9.154;2022-11-11T02:29:52;7.90;;;7.10;;
14688;SDS011;7432;48.728;9.154;2022-11-11T02:32:21;6.80;;;6.17;;
14688;SDS011;7432;48.728;9.154;2022-11-11T02:34:47;9.40;;;6.80;;
14688;SDS011;7432;48.728;9.154;2022-11-11T02:37:15;8.93;;;7.57;;
14688;SDS011;7432;48.728;9.154;2022-11-11T02:39:44;8.93;;;6.50;;
14688;SDS011;7432;48.728;9.154;2022-11-11T02:42:14;8.97;;;7.20;;
14688;SDS011;7432;48.728;9.154;2022-11-11T02:44:43;9.20;;;7.43;;
14688;SDS011;7432;48.728;9.154;2022-11-11T02:47:09;7.67;;;6.90;;
14688;SDS011;7432;48.728;9.154;2022-11-11T02:49:36;11.57;;;6.57;;
14688;SDS011;7432;48.728;9.154;2022-11-11T02:52:02;9.47;;;7.07;;
14688;SDS011;7432;48.728;9.154;2022-11-11T02:54:29;8.27;;;7.10;;
14688;SDS011;7432;48.728;9.154;2022-11-11T02:56:55;8.87;;;7.30;;
14688;SDS011;7432;48.728;9.154;2022-11-11T02:59:36;8.57;;;6.70;;
14688;SDS011;7432;48.728;9.154;2022-11-11T03:02:03;9.27;;;6.80;;
14688;SDS011;7432;48.728;9.154;2022-11-11T03:04:31;8.03;;;7.23;;
14688;SDS011;7432;48.728;9.154;2022-11-11T03:06:58;7.73;;;6.97;;
14688;SDS011;7432;48.728;9.154;2022-11-11T03:09:24;6.73;;;5.97;;
14688;SDS011;7432;48.728;9.154;2022-11-11T03:11:51;7.83;;;6.40;;
14688;SDS011;7432;48.728;9.154;2022-11-11T03:14:17;8.80;;;7.40;;
14688;SDS011;7432;48.728;9.154;2022-11-11T03:16:45;8.97;;;7.03;;
14688;SDS011;7432;48.728;9.154;2022-11-11T03:19:29;7.07;;;6.37;;
14688;SDS011;7432;48.728;9.154;2022-11-11T03:21:56;8.40;;;7.50;;
14688;SDS011;7432;48.728;9.154;2022-11-11T03:24:23;8.00;;;7.20;;
14688;SDS011;7432;48.728;9.154;2022-11-11T03:27:09;7.50;;;6.57;;
14688;SDS011;7432;48.728;9.154;2022-11-11T03:29:35;10.53;;;7.23;;
14688;SDS011;7432;48.728;9.154;2022-11-11T03:32:03;7.93;;;6.47;;
14688;SDS011;7432;48.728;9.154;2022-11-11T03:34:30;8.43;;;7.20;;
14688;SDS011;7432;48.728;9.154;2022-11-11T03:36:56;7.07;;;6.30;;
14688;SDS011;7432;48.728;9.154;2022-11-11T03:39:40;8.73;;;6.77;;
14688;SDS011;7432;48.728;9.154;2022-11-11T03:42:07;6.90;;;6.30;;
14688;SDS011;7432;48.728;9.154;2022-11-11T03:44:33;7.23;;;6.53;;
14688;SDS011;7432;48.728;9.154;2022-11-11T03:47:00;8.20;;;6.80;;
14688;SDS011;7432;48.728;9.154;2022-11-11T03:49:27;7.67;;;6.83;;
14688;SDS011;7432;48.728;9.154;2022-11-11T03:51:54;7.80;;;6.77;;
14688;SDS011;7432;48.728;9.154;2022-11-11T03:54:20;8.50;;;7.70;;
14688;SDS011;7432;48.728;9.154;2022-11-11T03:56:46;8.47;;;7.57;;
14688;SDS011;7432;48.728;9.154;2022-11-11T03:59:13;8.50;;;7.80;;
14688;SDS011;7432;48.728;9.154;2022-11-11T04:01:39;8.17;;;6.80;;
14688;SDS011;7432;48.728;9.154;2022-11-11T04:04:23;7.87;;;7.07;;
14688;SDS011;7432;48.728;9.154;2022-11-11T04:07:08;7.80;;;7.10;;
14688;SDS011;7432;48.728;9.154;2022-11-11T04:09:53;7.53;;;6.70;;
14688;SDS011;7432;48.728;9.154;2022-11-11T04:12:37;8.97;;;7.37;;
14688;SDS011;7432;48.728;9.154;2022-11-11T04:15:19;8.17;;;7.33;;
14688;SDS011;7432;48.728;9.154;2022-11-11T04:18:03;7.73;;;7.03;;
14688;SDS011;7432;48.728;9.154;2022-11-11T04:20:30;7.20;;;5.63;;
14688;SDS011;7432;48.728;9.154;2022-11-11T04:23:15;7.23;;;6.53;;
14688;SDS011;7432;48.728;9.154;2022-11-11T04:25:41;8.83;;;7.00;;
14688;SDS011;7432;48.728;9.154;2022-11-11T04:28:13;7.13;;;6.53;;
14688;SDS011;7432;48.728;9.154;2022-11-11T04:30:57;7.10;;;5.97;;
14688;SDS011;7432;48.728;9.154;2022-11-11T04:33:23;7.70;;;7.07;;
14688;SDS011;7432;48.728;9.154;2022-11-11T04:35:50;7.07;;;6.47;;
14688;SDS011;7432;48.728;9.154;2022-11-11T04:38:17;7.03;;;6.33;;
14688;SDS011;7432;48.728;9.154;2022-11-11T04:41:02;6.97;;;6.27;;
14688;SDS011;7432;48.728;9.154;2022-11-11T04:43:28;7.33;;;6.73;;
14688;SDS011;7432;48.728;9.154;2022-11-11T04:45:56;7.63;;;7.03;;
14688;SDS011;7432;48.728;9.154;2022-11-11T04:48:22;7.50;;;6.67;;
14688;SDS011;7432;48.728;9.154;2022-11-11T04:50:48;7.60;;;6.90;;
14688;SDS011;7432;48.728;9.154;2022-11-11T04:53:15;7.37;;;6.67;;
14688;SDS011;7432;48.728;9.154;2022-11-11T04:55:43;7.20;;;6.60;;
14688;SDS011;7432;48.728;9.154;2022-11-11T04:58:30;6.43;;;5.83;;
14688;SDS011;7432;48.728;9.154;2022-11-11T05:00:58;6.60;;;6.00;;
14688;SDS011;7432;48.728;9.154;2022-11-11T05:03:25;7.20;;;6.50;;
14688;SDS011;7432;48.728;9.154;2022-11-11T05:05:52;6.80;;;6.30;;
14688;SDS011;7432;48.728;9.154;2022-11-11T05:08:38;7.10;;;6.50;;
14688;SDS011;7432;48.728;9.154;2022-11-11T05:11:25;7.00;;;6.40;;
14688;SDS011;7432;48.728;9.154;2022-11-11T05:13:53;7.13;;;6.53;;
14688;SDS011;7432;48.728;9.154;2022-11-11T05:16:40;7.50;;;6.80;;
14688;SDS011;7432;48.728;9.154;2022-11-11T05:19:26;7.33;;;6.70;;
14688;SDS011;7432;48.728;9.154;2022-11-11T05:22:11;8.23;;;7.20;;
14688;SDS011;7432;48.728;9.154;2022-11-11T05:24:41;8.10;;;7.37;;
14688;SDS011;7432;48.728;9.154;2022-11-11T05:27:26;8.83;;;7.37;;
14688;SDS011;7432;48.728;9.154;2022-11-11T05:29:53;8.20;;;7.33;;
14688;SDS011;7432;48.728;9.154;2022-11-11T05:32:20;7.37;;;6.77;;
14688;SDS011;7432;48.728;9.154;2022-11-11T05:34:47;7.93;;;7.23;;
14688;SDS011;7432;48.728;9.154;2022-11-11T05:37:14;7.87;;;6.33;;
14688;SDS011;7432;48.728;9.154;2022-11-11T05:39:41;6.93;;;6.23;;
14688;SDS011;7432;48.728;9.154;2022-11-11T05:42:07;6.83;;;6.13;;
14688;SDS011;7432;48.728;9.154;2022-11-11T05:44:36;7.53;;;6.70;;
14688;SDS011;7432;48.728;9.154;2022-11-11T05:47:03;8.63;;;7.83;;
14688;SDS011;7432;48.728;9.154;2022-11-11T05:49:29;7.60;;;6.90;;
14688;SDS011;7432;48.728;9.154;2022-11-11T05:51:56;7.77;;;6.77;;
14688;SDS011;7432;48.728;9.154;2022-11-11T05:54:22;7.23;;;6.73;;
14688;SDS011;7432;48.728;9.154;2022-11-11T05:56:49;8.23;;;7.43;;
14688;SDS011;7432;48.728;9.154;2022-11-11T05:59:16;7.87;;;7.10;;
14688;SDS011;7432;48.728;9.154;2022-11-11T06:01:43;8.00;;;7.30;;
14688;SDS011;7432;48.728;9.154;2022-11-11T06:04:10;7.67;;;7.03;;
14688;SDS011;7432;48.728;9.154;2022-11-11T06:06:36;7.93;;;7.23;;
14688;SDS011;7432;48.728;9.154;2022-11-11T06:09:03;8.50;;;6.33;;
14688;SDS011;7432;48.728;9.154;2022-11-11T06:11:30;8.53;;;7.83;;
14688;SDS011;7432;48.728;9.154;2022-11-11T06:13:56;8.03;;;7.20;;
14688;SDS011;7432;48.728;9.154;2022-11-11T06:16:23;7.53;;;6.83;;
14688;SDS011;7432;48.728;9.154;2022-11-11T06:18:51;8.47;;;7.17;;
14688;SDS011;7432;48.728;9.154;2022-11-11T06:21:17;7.30;;;6.70;;
14688;SDS011;7432;48.728;9.154;2022-11-11T06:23:44;8.10;;;7.40;;
14688;SDS011;7432;48.728;9.154;2022-11-11T06:26:10;7.53;;;6.80;;
14688;SDS011;7432;48.728;9.154;2022-11-11T06:28:38;9.30;;;7.20;;
14688;SDS011;7432;48.728;9.154;2022-11-11T06:31:05;7.60;;;6.80;;
14688;SDS011;7432;48.728;9.154;2022-11-11T06:33:32;7.63;;;6.80;;
14688;SDS011;7432;48.728;9.154;2022-11-11T06:36:00;9.37;;;6.97;;
14688;SDS011;7432;48.728;9.154;2022-11-11T06:38:27;7.83;;;7.13;;
14688;SDS011;7432;48.728;9.154;2022-11-11T06:40:53;10.73;;;7.83;;
14688;SDS011;7432;48.728;9.154;2022-11-11T06:43:20;8.30;;;7.60;;
14688;SDS011;7432;48.728;9.154;2022-11-11T06:45:49;8.57;;;7.00;;
14688;SDS011;7432;48.728;9.154;2022-11-11T06:48:16;8.60;;;7.60;;
14688;SDS011;7432;48.728;9.154;2022-11-11T06:50:43;11.67;;;7.83;;
14688;SDS011;7432;48.728;9.154;2022-11-11T06:53:11;8.60;;;7.73;;
14688;SDS011;7432;48.728;9.154;2022-11-11T06:55:38;8.03;;;6.70;;
14688;SDS011;7432;48.728;9.154;2022-11-11T06:58:05;8.93;;;7.20;;
14688;SDS011;7432;48.728;9.154;2022-11-11T07:00:32;7.57;;;6.87;;
14688;SDS011;7432;48.728;9.154;2022-11-11T07:02:59;8.87;;;8.03;;
14688;SDS011;7432;48.728;9.154;2022-11-11T07:05:26;9.03;;;7.10;;
14688;SDS011;7432;48.728;9.154;2022-11-11T07:07:52;7.77;;;6.93;;
14688;SDS011;7432;48.728;9.154;2022-11-11T07:10:20;7.70;;;6.50;;
14688;SDS011;7432;48.728;9.154;2022-11-11T07:12:47;10.33;;;7.27;;
14688;SDS011;7432;48.728;9.154;2022-11-11T07:15:13;8.53;;;6.90;;
14688;SDS011;7432;48.728;9.154;2022-11-11T07:17:40;8.37;;;7.60;;
14688;SDS011;7432;48.728;9.154;2022-11-11T07:20:07;7.30;;;6.67;;
14688;SDS011;7432;48.728;9.154;2022-11-11T07:22:34;10.07;;;8.03;;
14688;SDS011;7432;48.728;9.154;2022-11-11T07:25:01;7.27;;;6.57;;
14688;SDS011;7432;48.728;9.154;2022-11-11T07:27:29;8.10;;;7.30;;
14688;SDS011;7432;48.728;9.154;2022-11-11T07:29:55;6.93;;;6.33;;
14688;SDS011;7432;48.728;9.154;2022-11-11T07:32:21;11.97;;;7.53;;
14688;SDS011;7432;48.728;9.154;2022-11-11T07:34:48;7.87;;;7.07;;
14688;SDS011;7432;48.728;9.154;2022-11-11T07:37:15;9.73;;;7.10;;
14688;SDS011;7432;48.728;9.154;2022-11-11T07:39:41;8.30;;;7.07;;
14688;SDS011;7432;48.728;9.154;2022-11-11T07:42:08;10.80;;;7.07;;
14688;SDS011;7432;48.728;9.154;2022-11-11T07:44:35;9.83;;;7.30;;
14688;SDS011;7432;48.728;9.154;2022-11-11T07:47:02;6.63;;;6.03;;
14688;SDS011;7432;48.728;9.154;2022-11-11T07:49:28;10.23;;;7.23;;
14688;SDS011;7432;48.728;9.154;2022-11-11T07:51:54;9.37;;;6.47;;
14688;SDS011;7432;48.728;9.154;2022-11-11T07:54:21;10.70;;;7.53;;
14688;SDS011;7432;48.728;9.154;2022-11-11T07:56:47;17.63;;;6.90;;
14688;SDS011;7432;48.728;9.154;2022-11-11T07:59:14;7.73;;;6.93;;
14688;SDS011;7432;48.728;9.154;2022-11-11T08:01:41;8.77;;;6.70;;
14688;SDS011;7432;48.728;9.154;2022-11-11T08:04:08;9.77;;;6.63;;
14688;SDS011;7432;48.728;9.154;2022-11-11T08:06:34;7.17;;;6.30;;
14688;SDS011;7432;48.728;9.154;2022-11-11T08:09:01;8.23;;;6.70;;
14688;SDS011;7432;48.728;9.154;2022-11-11T08:11:27;7.97;;;6.70;;
14688;SDS011;7432;48.728;9.154;2022-11-11T08:14:14;9.00;;;6.73;;
14688;SDS011;7432;48.728;9.154;2022-11-11T08:16:41;10.60;;;7.00;;
14688;SDS011;7432;48.728;9.154;2022-11-11T08:19:08;8.73;;;6.87;;
14688;SDS011;7432;48.728;9.154;2022-11-11T08:21:34;7.77;;;6.80;;
14688;SDS011;7432;48.728;9.154;2022-11-11T08:24:01;11.63;;;6.67;;
14688;SDS011;7432;48.728;9.154;2022-11-11T08:26:27;8.33;;;6.53;;
14688;SDS011;7432;48.728;9.154;2022-11-11T08:28:54;7.93;;;6.70;;
14688;SDS011;7432;48.728;9.154;2022-11-11T08:31:21;7.13;;;6.60;;
14688;SDS011;7432;48.728;9.154;2022-11-11T08:33:49;8.07;;;7.00;;
14688;SDS011;7432;48.728;9.154;2022-11-11T08:36:15;7.80;;;7.03;;
14688;SDS011;7432;48.728;9.154;2022-11-11T08:38:41;7.40;;;6.70;;
14688;SDS011;7432;48.728;9.154;2022-11-11T08:41:09;8.67;;;7.30;;
14688;SDS011;7432;48.728;9.154;2022-11-11T08:43:35;9.00;;;6.97;;
14688;SDS011;7432;48.728;9.154;2022-11-11T08:46:02;6.80;;;6.27;;
14688;SDS011;7432;48.728;9.154;2022-11-11T08:48:29;8.43;;;6.73;;
14688;SDS011;7432;48.728;9.154;2022-11-11T08:50:58;9.23;;;7.00;;
14688;SDS011;7432;48.728;9.154;2022-11-11T08:53:26;8.37;;;7.17;;
14688;SDS011;7432;48.728;9.154;2022-11-11T08:55:52;8.70;;;6.60;;
14688;SDS011;7432;48.728;9.154;2022-11-11T08:58:19;7.50;;;6.90;;
14688;SDS011;7432;48.728;9.154;2022-11-11T09:00:45;7.80;;;7.00;;
14688;SDS011;7432;48.728;9.154;2022-11-11T09:03:12;7.27;;;6.53;;
14688;SDS011;7432;48.728;9.154;2022-11-11T09:05:38;7.67;;;6.97;;
14688;SDS011;7432;48.728;9.154;2022-11-11T09:08:07;7.97;;;7.20;;
14688;SDS011;7432;48.728;9.154;2022-11-11T09:10:34;8.50;;;7.47;;
14688;SDS011;7432;48.728;9.154;2022-11-11T09:13:01;9.10;;;7.83;;
14688;SDS011;7432;48.728;9.154;2022-11-11T09:15:27;10.33;;;7.73;;
14688;SDS011;7432;48.728;9.154;2022-11-11T09:17:54;9.20;;;7.80;;
14688;SDS011;7432;48.728;9.154;2022-11-11T09:20:21;8.83;;;7.40;;
14688;SDS011;7432;48.728;9.154;2022-11-11T09:22:48;8.03;;;7.30;;
14688;SDS011;7432;48.728;9.154;2022-11-11T09:25:17;9.47;;;7.40;;
14688;SDS011;7432;48.728;9.154;2022-11-11T09:27:44;8.47;;;6.87;;
14688;SDS011;7432;48.728;9.154;2022-11-11T09:30:19;8.60;;;6.37;;
14688;SDS011;7432;48.728;9.154;2022-11-11T09:32:45;6.07;;;5.47;;
14688;SDS011;7432;48.728;9.154;2022-11-11T09:35:12;6.37;;;5.77;;
14688;SDS011;7432;48.728;9.154;2022-11-11T09:37:38;6.07;;;5.43;;
14688;SDS011;7432;48.728;9.154;2022-11-11T09:40:05;7.73;;;5.70;;
14688;SDS011;7432;48.728;9.154;2022-11-11T09:42:36;6.53;;;5.60;;
14688;SDS011;7432;48.728;9.154;2022-11-11T09:45:08;7.23;;;5.77;;
14688;SDS011;7432;48.728;9.154;2022-11-11T09:47:44;5.80;;;5.30;;
14688;SDS011;7432;48.728;9.154;2022-11-11T09:50:21;6.43;;;5.77;;
14688;SDS011;7432;48.728;9.154;2022-11-11T09:52:50;7.40;;;6.00;;
14688;SDS011;7432;48.728;9.154;2022-11-11T09:55:23;7.30;;;5.80;;
14688;SDS011;7432;48.728;9.154;2022-11-11T09:57:57;6.03;;;5.43;;
14688;SDS011;7432;48.728;9.154;2022-11-11T10:00:30;6.10;;;5.60;;
14688;SDS011;7432;48.728;9.154;2022-11-11T10:03:07;6.17;;;5.50;;
14688;SDS011;7432;48.728;9.154;2022-11-11T10:05:43;5.73;;;5.30;;
14688;SDS011;7432;48.728;9.154;2022-11-11T10:08:14;6.43;;;5.80;;
14688;SDS011;7432;48.728;9.154;2022-11-11T10:10:44;8.13;;;6.07;;
14688;SDS011;7432;48.728;9.154;2022-11-11T10:13:13;6.33;;;5.47;;
14688;SDS011;7432;48.728;9.154;2022-11-11T10:15:44;5.40;;;4.90;;
14688;SDS011;7432;48.728;9.154;2022-11-11T10:18:24;5.43;;;4.93;;
14688;SDS011;7432;48.728;9.154;2022-11-11T10:21:00;5.47;;;4.97;;
14688;SDS011;7432;48.728;9.154;2022-11-11T10:23:31;5.67;;;5.07;;
14688;SDS011;7432;48.728;9.154;2022-11-11T10:26:01;5.97;;;5.37;;
14688;SDS011;7432;48.728;9.154;2022-11-11T10:28:34;5.00;;;4.67;;
14688;SDS011;7432;48.728;9.154;2022-11-11T10:31:03;6.03;;;5.33;;
14688;SDS011;7432;48.728;9.154;2022-11-11T10:33:35;8.07;;;5.50;;
14688;SDS011;7432;48.728;9.154;2022-11-11T10:36:13;6.23;;;5.70;;
14688;SDS011;7432;48.728;9.154;2022-11-11T10:38:45;6.00;;;5.50;;
14688;SDS011;7432;48.728;9.154;2022-11-11T10:41:16;6.33;;;5.67;;
14688;SDS011;7432;48.728;9.154;2022-11-11T10:43:50;5.63;;;5.13;;
14688;SDS011;7432;48.728;9.154;2022-11-11T10:46:18;6.27;;;5.00;;
14688;SDS011;7432;48.728;9.154;2022-11-11T10:48:50;6.30;;;5.63;;
14688;SDS011;7432;48.728;9.154;2022-11-11T10:51:21;7.33;;;5.23;;
14688;SDS011;7432;48.728;9.154;2022-11-11T10:53:52;5.70;;;5.10;;
14688;SDS011;7432;48.728;9.154;2022-11-11T10:56:27;6.37;;;5.77;;
14688;SDS011;7432;48.728;9.154;2022-11-11T10:59:01;5.77;;;5.27;;
14688;SDS011;7432;48.728;9.154;2022-11-11T11:01:35;5.27;;;4.77;;
14688;SDS011;7432;48.728;9.154;2022-11-11T11:04:08;6.00;;;5.03;;
14688;SDS011;7432;48.728;9.154;2022-11-11T11:06:41;5.97;;;5.17;;
14688;SDS011;7432;48.728;9.154;2022-11-11T11:09:10;6.43;;;5.40;;
14688;SDS011;7432;48.728;9.154;2022-11-11T11:11:41;5.23;;;4.87;;
14688;SDS011;7432;48.728;9.154;2022-11-11T11:14:15;6.70;;;4.87;;
14688;SDS011;7432;48.728;9.154;2022-11-11T11:16:47;5.73;;;5.23;;
14688;SDS011;7432;48.728;9.154;2022-11-11T11:19:20;5.33;;;4.83;;
14688;SDS011;7432;48.728;9.154;2022-11-11T11:21:52;7.10;;;4.83;;
14688;SDS011;7432;48.728;9.154;2022-11-11T11:24:20;5.13;;;4.57;;
14688;SDS011;7432;48.728;9.154;2022-11-11T11:26:50;6.27;;;5.70;;
14688;SDS011;7432;48.728;9.154;2022-11-11T11:29:24;5.37;;;4.87;;
14688;SDS011;7432;48.728;9.154;2022-11-11T11:32:01;6.53;;;5.70;;
14688;SDS011;7432;48.728;9.154;2022-11-11T11:34:44;5.70;;;5.30;;
14688;SDS011;7432;48.728;9.154;2022-11-11T11:37:12;6.73;;;5.03;;
14688;SDS011;7432;48.728;9.154;2022-11-11T11:39:39;6.90;;;5.30;;
14688;SDS011;7432;48.728;9.154;2022-11-11T11:42:06;8.87;;;5.80;;
14688;SDS011;7432;48.728;9.154;2022-11-11T11:44:34;10.70;;;6.23;;
14688;SDS011;7432;48.728;9.154;2022-11-11T11:47:10;6.63;;;5.97;;
14688;SDS011;7432;48.728;9.154;2022-11-11T11:49:56;6.80;;;6.10;;
14688;SDS011;7432;48.728;9.154;2022-11-11T11:52:42;6.73;;;5.63;;
14688;SDS011;7432;48.728;9.154;2022-11-11T11:55:23;6.53;;;5.80;;
14688;SDS011;7432;48.728;9.154;2022-11-11T11:57:55;6.10;;;5.50;;
14688;SDS011;7432;48.728;9.154;2022-11-11T12:00:40;5.87;;;5.37;;
14688;SDS011;7432;48.728;9.154;2022-11-11T12:03:25;6.10;;;5.40;;
14688;SDS011;7432;48.728;9.154;2022-11-11T12:06:09;8.13;;;5.97;;
14688;SDS011;7432;48.728;9.154;2022-11-11T12:08:46;6.40;;;5.90;;
14688;SDS011;7432;48.728;9.154;2022-11-11T12:11:23;5.50;;;5.10;;
14688;SDS011;7432;48.728;9.154;2022-11-11T12:14:03;5.70;;;5.20;;
14688;SDS011;7432;48.728;9.154;2022-11-11T12:16:46;5.97;;;5.40;;
14688;SDS011;7432;48.728;9.154;2022-11-11T12:19:27;5.60;;;5.13;;
14688;SDS011;7432;48.728;9.154;2022-11-11T12:22:06;9.77;;;5.90;;
14688;SDS011;7432;48.728;9.154;2022-11-11T12:24:45;6.50;;;5.80;;
14688;SDS011;7432;48.728;9.154;2022-11-11T12:27:19;7.53;;;6.07;;
14688;SDS011;7432;48.728;9.154;2022-11-11T12:30:01;6.33;;;5.83;;
14688;SDS011;7432;48.728;9.154;2022-11-11T12:35:31;6.80;;;5.70;;
14688;SDS011;7432;48.728;9.154;2022-11-11T12:38:11;8.27;;;5.13;;
14688;SDS011;7432;48.728;9.154;2022-11-11T12:40:48;5.20;;;4.80;;
14688;SDS011;7432;48.728;9.154;2022-11-11T12:43:26;5.50;;;5.10;;
14688;SDS011;7432;48.728;9.154;2022-11-11T12:45:59;8.07;;;6.13;;
14688;SDS011;7432;48.728;9.154;2022-11-11T12:48:40;6.27;;;5.73;;
14688;SDS011;7432;48.728;9.154;2022-11-11T12:51:18;7.10;;;5.80;;
14688;SDS011;7432;48.728;9.154;2022-11-11T12:53:56;8.90;;;5.70;;
14688;SDS011;7432;48.728;9.154;2022-11-11T12:56:34;6.13;;;5.60;;
14688;SDS011;7432;48.728;9.154;2022-11-11T12:59:10;8.23;;;6.00;;
14688;SDS011;7432;48.728;9.154;2022-11-11T13:01:50;6.30;;;5.70;;
14688;SDS011;7432;48.728;9.154;2022-11-11T13:04:28;7.60;;;5.80;;
14688;SDS011;7432;48.728;9.154;2022-11-11T13:07:05;6.97;;;6.17;;
14688;SDS011;7432;48.728;9.154;2022-11-11T13:12:41;8.67;;;6.40;;
14688;SDS011;7432;48.728;9.154;2022-11-11T13:15:13;7.47;;;6.87;;
14688;SDS011;7432;48.728;9.154;2022-11-11T13:17:42;7.50;;;6.07;;
14688;SDS011;7432;48.728;9.154;2022-11-11T13:20:14;8.10;;;6.43;;
14688;SDS011;7432;48.728;9.154;2022-11-11T13:22:48;6.93;;;6.27;;
14688;SDS011;7432;48.728;9.154;2022-11-11T13:25:16;8.27;;;6.80;;
14688;SDS011;7432;48.728;9.154;2022-11-11T13:27:47;8.03;;;7.17;;
14688;SDS011;7432;48.728;9.154;2022-11-11T13:33:12;8.20;;;7.17;;
14688;SDS011;7432;48.728;9.154;2022-11-11T13:35:42;7.83;;;7.00;;
14688;SDS011;7432;48.728;9.154;2022-11-11T13:38:12;6.03;;;5.43;;
14688;SDS011;7432;48.728;9.154;2022-11-11T13:40:50;6.93;;;6.33;;
14688;SDS011;7432;48.728;9.154;2022-11-11T13:43:19;9.57;;;7.40;;
14688;SDS011;7432;48.728;9.154;2022-11-11T13:45:50;10.17;;;6.77;;
14688;SDS011;7432;48.728;9.154;2022-11-11T13:48:20;8.23;;;7.33;;
14688;SDS011;7432;48.728;9.154;2022-11-11T13:50:52;7.80;;;7.00;;
14688;SDS011;7432;48.728;9.154;2022-11-11T13:53:25;10.57;;;6.63;;
14688;SDS011;7432;48.728;9.154;2022-11-11T13:55:59;6.90;;;6.40;;
14688;SDS011;7432;48.728;9.154;2022-11-11T13:58:28;7.30;;;6.30;;
14688;SDS011;7432;48.728;9.154;2022-11-11T14:00:57;8.27;;;6.60;;
14688;SDS011;7432;48.728;9.154;2022-11-11T14:03:30;7.37;;;6.00;;
14688;SDS011;7432;48.728;9.154;2022-11-11T14:09:00;6.87;;;6.10;;
14688;SDS011;7432;48.728;9.154;2022-11-11T14:11:28;6.90;;;6.20;;
14688;SDS011;7432;48.728;9.154;2022-11-11T14:13:56;7.57;;;7.00;;
14688;SDS011;7432;48.728;9.154;2022-11-11T14:19:26;7.17;;;6.37;;
14688;SDS011;7432;48.728;9.154;2022-11-11T14:21:55;7.47;;;6.87;;
14688;SDS011;7432;48.728;9.154;2022-11-11T14:24:24;7.53;;;6.83;;
14688;SDS011;7432;48.728;9.154;2022-11-11T14:26:57;7.60;;;6.97;;
14688;SDS011;7432;48.728;9.154;2022-11-11T14:29:26;7.20;;;6.60;;
14688;SDS011;7432;48.728;9.154;2022-11-11T14:35:14;7.60;;;6.80;;
14688;SDS011;7432;48.728;9.154;2022-11-11T14:40:45;8.27;;;6.67;;
14688;SDS011;7432;48.728;9.154;2022-11-11T14:46:05;7.40;;;6.80;;
14688;SDS011;7432;48.728;9.154;2022-11-11T14:48:49;7.60;;;6.90;;
14688;SDS011;7432;48.728;9.154;2022-11-11T14:51:36;7.67;;;6.80;;
14688;SDS011;7432;48.728;9.154;2022-11-11T14:54:14;8.53;;;6.70;;
14688;SDS011;7432;48.728;9.154;2022-11-11T14:56:50;7.20;;;6.50;;
14688;SDS011;7432;48.728;9.154;2022-11-11T14:59:20;6.27;;;5.67;;
14688;SDS011;7432;48.728;9.154;2022-11-11T15:01:50;7.20;;;6.47;;
14688;SDS011;7432;48.728;9.154;2022-11-11T15:04:19;6.90;;;6.30;;
14688;SDS011;7432;48.728;9.154;2022-11-11T15:06:46;6.90;;;6.30;;
14688;SDS011;7432;48.728;9.154;2022-11-11T15:09:27;7.83;;;7.03;;
14688;SDS011;7432;48.728;9.154;2022-11-11T15:12:04;6.83;;;6.33;;
14688;SDS011;7432;48.728;9.154;2022-11-11T15:14:39;8.50;;;6.00;;
14688;SDS011;7432;48.728;9.154;2022-11-11T15:17:15;7.00;;;6.40;;
14688;SDS011;7432;48.728;9.154;2022-11-11T15:19:54;6.67;;;6.17;;
14688;SDS011;7432;48.728;9.154;2022-11-11T15:22:33;6.97;;;6.37;;
14688;SDS011;7432;48.728;9.154;2022-11-11T15:25:16;7.97;;;7.17;;
14688;SDS011;7432;48.728;9.154;2022-11-11T15:27:56;6.70;;;6.20;;
14688;SDS011;7432;48.728;9.154;2022-11-11T15:30:36;7.00;;;6.40;;
14688;SDS011;7432;48.728;9.154;2022-11-11T15:33:16;7.10;;;6.53;;
14688;SDS011;7432;48.728;9.154;2022-11-11T15:35:52;6.93;;;6.30;;
14688;SDS011;7432;48.728;9.154;2022-11-11T15:38:23;7.33;;;6.63;;
14688;SDS011;7432;48.728;9.154;2022-11-11T15:40:52;7.23;;;6.50;;
14688;SDS011;7432;48.728;9.154;2022-11-11T15:43:22;7.50;;;6.90;;
14688;SDS011;7432;48.728;9.154;2022-11-11T15:45:53;7.07;;;6.47;;
14688;SDS011;7432;48.728;9.154;2022-11-11T15:48:22;6.97;;;6.00;;